Terminal Aerodrome Forecast
Issued by NWS

Home | Current Version | Previous Version | Graphics & Text | Print | Product List | Glossary On
Versions: 1 2 3 4 5 6 7 8 9 10 11 12 13 14 15 16 17 18
420
FTUS43 KMPX 080809 AAA
TAFAXN
TAF AMD
KAXN 080809Z 0808/0906 29016G24KT 3SM -SN OVC008
     FM081600 32018G23KT 6SM -SN OVC015
     FM090000 32013KT P6SM BKN020=

USA.gov is the U.S. government's official web portal to all federal, state and local government web resources and services.